Time;durP1;ratioP1;P1;durP2;ratioP2;P2;SDS_P1;SDS_P2;PMS_P1;PMS_P2;Temp;Humidity;BMP_temperature;BMP_pressure;BME280_temperature;BME280_humidity;BME280_pressure;Samples;Min_cycle;Max_cycle;Signal;HPM_P1;HPM_P2
2023/09/24 00:01:13;;;;;;;5.93;2.27;;;9.20;99.90;;;;;;5014823;28;20189;-46
2023/09/24 00:03:39;;;;;;;3.10;1.80;;;9.10;99.90;;;;;;5014797;28;20205;-45
2023/09/24 00:06:07;;;;;;;3.60;2.00;;;9.10;99.90;;;;;;5014747;28;20191;-46
2023/09/24 00:08:33;;;;;;;3.60;1.90;;;9.10;99.90;;;;;;5014716;28;20176;-47
2023/09/24 00:10:58;;;;;;;6.57;2.23;;;9.10;99.90;;;;;;5014690;28;20813;-48
2023/09/24 00:13:25;;;;;;;6.70;2.23;;;9.00;99.90;;;;;;5014709;28;20205;-45
2023/09/24 00:15:51;;;;;;;2.77;1.50;;;9.10;99.90;;;;;;5014902;28;20269;-48
2023/09/24 00:18:18;;;;;;;3.63;1.67;;;9.00;99.90;;;;;;5015975;28;20247;-46
2023/09/24 00:20:44;;;;;;;3.00;1.63;;;9.00;99.90;;;;;;5016973;28;20201;-46
2023/09/24 00:23:10;;;;;;;3.00;1.83;;;8.90;99.90;;;;;;5014291;28;20289;-47
2023/09/24 00:25:37;;;;;;;3.60;1.90;;;8.90;99.90;;;;;;5014623;28;20191;-44
2023/09/24 00:28:03;;;;;;;2.60;1.87;;;8.80;99.90;;;;;;5014411;28;20184;-47
2023/09/24 00:30:31;;;;;;;4.60;1.70;;;8.80;99.90;;;;;;5014040;28;20220;-47
2023/09/24 00:32:58;;;;;;;3.47;1.60;;;8.80;99.90;;;;;;5014285;28;20261;-46
2023/09/24 00:35:23;;;;;;;4.47;1.97;;;8.80;99.90;;;;;;4975696;28;1118647;-45
2023/09/24 00:37:49;;;;;;;3.77;1.70;;;8.70;99.90;;;;;;5015067;28;20165;-45
2023/09/24 00:40:15;;;;;;;7.47;1.60;;;8.70;99.90;;;;;;5014923;28;20615;-47
2023/09/24 00:42:40;;;;;;;6.17;1.60;;;8.80;99.90;;;;;;5013758;28;20213;-46
2023/09/24 00:45:10;;;;;;;6.27;1.70;;;8.80;99.90;;;;;;5013910;28;20184;-47
2023/09/24 00:47:45;;;;;;;4.53;1.63;;;8.70;99.90;;;;;;5014661;28;20644;-47
2023/09/24 00:50:12;;;;;;;5.37;1.70;;;8.70;99.90;;;;;;5015042;28;20252;-44
2023/09/24 00:52:38;;;;;;;3.77;1.30;;;8.70;99.90;;;;;;5013675;28;20188;-46
2023/09/24 00:55:06;;;;;;;3.07;1.73;;;8.70;99.90;;;;;;5015328;28;20555;-41
2023/09/24 00:57:33;;;;;;;3.63;1.90;;;8.70;99.90;;;;;;5014563;28;20702;-46
2023/09/24 01:00:05;;;;;;;6.97;1.93;;;8.60;99.90;;;;;;5014831;28;20274;-45
2023/09/24 01:02:31;;;;;;;4.63;1.70;;;8.60;99.90;;;;;;5014660;28;20210;-47
2023/09/24 01:05:00;;;;;;;4.40;1.50;;;8.60;99.90;;;;;;4997134;28;20182;-47
2023/09/24 01:07:28;;;;;;;4.77;1.77;;;8.60;99.90;;;;;;5014391;28;20227;-46
2023/09/24 01:09:54;;;;;;;2.87;1.50;;;8.60;99.90;;;;;;5012997;28;20211;-47
2023/09/24 01:12:25;;;;;;;2.97;1.40;;;8.50;99.90;;;;;;5014504;28;20212;-45
2023/09/24 01:14:53;;;;;;;3.80;1.47;;;8.50;99.90;;;;;;4997266;28;20183;-47
2023/09/24 01:17:20;;;;;;;4.27;1.83;;;8.50;99.90;;;;;;5014368;28;20665;-47
2023/09/24 01:19:47;;;;;;;2.83;1.50;;;8.50;99.90;;;;;;5012837;28;20209;-48
2023/09/24 01:22:13;;;;;;;4.43;1.50;;;8.40;99.90;;;;;;5014250;28;20645;-47
2023/09/24 01:24:41;;;;;;;4.87;1.70;;;8.40;99.90;;;;;;5014199;28;20189;-47
2023/09/24 01:27:07;;;;;;;4.07;1.50;;;8.40;99.90;;;;;;5014146;28;20277;-46
2023/09/24 01:29:34;;;;;;;3.13;1.63;;;8.30;99.90;;;;;;5013989;28;20209;-46
2023/09/24 01:32:01;;;;;;;1.70;1.50;;;8.30;99.90;;;;;;5013910;28;20192;-46
2023/09/24 01:34:27;;;;;;;3.97;1.77;;;8.30;99.90;;;;;;5012835;28;20185;-46
2023/09/24 01:36:54;;;;;;;3.97;1.57;;;8.30;99.90;;;;;;5014041;28;20204;-46
2023/09/24 01:39:25;;;;;;;3.50;1.50;;;8.20;99.90;;;;;;5013257;28;20564;-46
2023/09/24 01:41:51;;;;;;;2.77;1.67;;;8.20;99.90;;;;;;5012672;28;20187;-46
2023/09/24 01:44:21;;;;;;;1.87;1.33;;;8.20;99.90;;;;;;4996399;28;20719;-47
2023/09/24 01:46:47;;;;;;;2.10;1.53;;;8.20;99.90;;;;;;5014171;28;20184;-46
2023/09/24 01:49:16;;;;;;;3.63;1.63;;;8.20;99.90;;;;;;4996265;28;20257;-48
2023/09/24 01:51:44;;;;;;;2.13;1.63;;;8.20;99.90;;;;;;5013870;28;20180;-46
2023/09/24 01:54:11;;;;;;;4.27;1.80;;;8.10;99.90;;;;;;5014067;28;20214;-47
2023/09/24 01:56:36;;;;;;;2.17;1.40;;;8.10;99.90;;;;;;5011987;28;20232;-45
2023/09/24 01:59:04;;;;;;;3.67;1.50;;;8.10;99.90;;;;;;5012502;28;20195;-46
2023/09/24 02:01:29;;;;;;;4.63;1.60;;;8.10;99.90;;;;;;5013553;28;20200;-47
2023/09/24 02:03:59;;;;;;;6.53;1.83;;;8.10;99.90;;;;;;5014524;28;20186;-45
2023/09/24 02:06:25;;;;;;;3.07;1.60;;;8.00;99.90;;;;;;5013598;28;20174;-47
2023/09/24 02:08:51;;;;;;;2.27;1.70;;;8.10;99.90;;;;;;5013433;28;20191;-46
2023/09/24 02:11:18;;;;;;;3.93;1.70;;;8.00;99.90;;;;;;5013436;28;20245;-46
2023/09/24 02:13:43;;;;;;;4.87;1.80;;;8.00;99.90;;;;;;5013428;28;20297;-47
2023/09/24 02:16:11;;;;;;;2.57;1.40;;;8.00;99.90;;;;;;5013512;28;20274;-47
2023/09/24 02:18:37;;;;;;;3.97;1.70;;;8.00;99.90;;;;;;5012200;28;20189;-48
2023/09/24 02:21:14;;;;;;;4.43;1.90;;;7.90;99.90;;;;;;5012135;28;20202;-47
2023/09/24 02:23:40;;;;;;;3.73;2.20;;;7.90;99.90;;;;;;5013454;28;20170;-47
2023/09/24 02:26:08;;;;;;;4.87;1.50;;;7.90;99.90;;;;;;5012153;28;20191;-46
2023/09/24 02:28:40;;;;;;;4.50;1.93;;;7.90;99.90;;;;;;5012151;28;20273;-48
2023/09/24 02:31:07;;;;;;;7.17;1.87;;;7.90;99.90;;;;;;5013505;28;20169;-47
2023/09/24 02:33:34;;;;;;;4.00;1.33;;;7.90;99.90;;;;;;5013309;28;20710;-47
2023/09/24 02:36:00;;;;;;;1.47;1.37;;;7.90;99.90;;;;;;5013247;28;20197;-46
2023/09/24 02:38:26;;;;;;;2.80;1.80;;;7.80;99.90;;;;;;5013650;28;20272;-46
2023/09/24 02:40:55;;;;;;;6.33;1.70;;;7.90;99.90;;;;;;5012728;28;20559;-46
2023/09/24 02:43:23;;;;;;;3.40;1.70;;;7.80;99.90;;;;;;5013342;28;20186;-45
2023/09/24 02:45:49;;;;;;;5.63;1.33;;;7.80;99.90;;;;;;5011965;28;20273;-47
2023/09/24 02:48:18;;;;;;;4.60;1.57;;;7.80;99.90;;;;;;5013181;28;20296;-47
2023/09/24 02:50:44;;;;;;;2.03;1.30;;;7.80;99.90;;;;;;5013286;28;20297;-47
2023/09/24 02:53:10;;;;;;;2.10;1.70;;;7.70;99.90;;;;;;5013229;28;20209;-49
2023/09/24 02:55:36;;;;;;;2.47;1.80;;;7.80;99.90;;;;;;5013187;28;20278;-46
2023/09/24 02:58:05;;;;;;;6.73;1.60;;;7.70;99.90;;;;;;5013120;28;20182;-48
2023/09/24 03:00:36;;;;;;;4.43;1.60;;;7.70;99.90;;;;;;5013131;28;20241;-47
2023/09/24 03:03:04;;;;;;;4.50;1.40;;;7.70;99.90;;;;;;5013369;28;20174;-45
2023/09/24 03:05:31;;;;;;;6.13;2.03;;;7.60;99.90;;;;;;5011825;28;20185;-46
2023/09/24 03:08:02;;;;;;;2.30;1.30;;;7.60;99.90;;;;;;5012694;28;20685;-48
2023/09/24 03:10:30;;;;;;;2.57;1.60;;;7.60;99.90;;;;;;5016529;28;20292;-46
2023/09/24 03:12:57;;;;;;;4.00;1.60;;;7.60;99.90;;;;;;5016389;28;20209;-47
2023/09/24 03:15:26;;;;;;;2.73;1.30;;;7.60;99.90;;;;;;5016434;28;20665;-47
2023/09/24 03:17:53;;;;;;;4.73;1.43;;;7.50;99.90;;;;;;5016244;28;20197;-46
2023/09/24 03:20:19;;;;;;;2.73;1.40;;;7.50;99.90;;;;;;5016372;28;20197;-47
2023/09/24 03:23:08;;;;;;;5.13;1.47;;;7.50;99.90;;;;;;5016511;28;20622;-45
2023/09/24 03:25:34;;;;;;;5.50;1.30;;;7.50;99.90;;;;;;5015980;28;20208;-47
2023/09/24 03:28:03;;;;;;;4.83;1.73;;;7.40;99.90;;;;;;5016733;28;20197;-46
2023/09/24 03:30:29;;;;;;;3.67;1.73;;;7.40;99.90;;;;;;5018850;28;20209;-46
2023/09/24 03:32:56;;;;;;;2.83;1.63;;;7.40;99.90;;;;;;5015994;28;20208;-47
2023/09/24 03:35:26;;;;;;;2.10;1.57;;;7.40;99.90;;;;;;5014734;28;20209;-47
2023/09/24 03:37:53;;;;;;;2.03;1.33;;;7.30;99.90;;;;;;5016322;28;20544;-46
2023/09/24 03:40:24;;;;;;;2.60;1.57;;;7.40;99.90;;;;;;5014697;28;20201;-47
2023/09/24 03:42:50;;;;;;;3.07;1.43;;;7.40;99.90;;;;;;5016182;28;20224;-46
2023/09/24 03:45:18;;;;;;;2.03;1.27;;;7.30;99.90;;;;;;5016041;28;20185;-47
2023/09/24 03:47:47;;;;;;;4.17;1.67;;;7.40;99.90;;;;;;5015844;28;20189;-47
2023/09/24 03:50:16;;;;;;;4.23;1.67;;;7.30;99.90;;;;;;5015605;28;20262;-46
2023/09/24 03:52:51;;;;;;;5.40;1.70;;;7.40;99.90;;;;;;5014431;28;20318;-47
2023/09/24 03:55:19;;;;;;;2.03;1.40;;;7.30;99.90;;;;;;5014884;28;20204;-45
2023/09/24 03:57:44;;;;;;;4.10;1.70;;;7.30;99.90;;;;;;5016022;28;20185;-46
2023/09/24 04:00:20;;;;;;;2.97;1.70;;;7.30;99.90;;;;;;5015810;28;20350;-48
2023/09/24 04:02:48;;;;;;;4.20;1.50;;;7.30;99.90;;;;;;5014594;28;20170;-46
2023/09/24 04:05:17;;;;;;;7.63;1.97;;;7.30;99.90;;;;;;5016194;28;20568;-47
2023/09/24 04:07:44;;;;;;;7.20;1.70;;;7.30;99.90;;;;;;5015741;28;20182;-48
2023/09/24 04:10:14;;;;;;;4.90;1.90;;;7.30;99.90;;;;;;5015747;28;20316;-46
2023/09/24 04:12:40;;;;;;;3.53;1.33;;;7.30;99.90;;;;;;5014158;28;20197;-48
2023/09/24 04:15:07;;;;;;;5.00;1.90;;;7.30;99.90;;;;;;5015708;28;20623;-45
2023/09/24 04:17:33;;;;;;;4.27;1.73;;;7.30;99.90;;;;;;5014070;28;20208;-47
2023/09/24 04:19:59;;;;;;;4.07;1.80;;;7.30;99.90;;;;;;5014854;28;20202;-47
2023/09/24 04:22:25;;;;;;;4.60;1.90;;;7.30;99.90;;;;;;5015228;28;20191;-48
2023/09/24 04:24:51;;;;;;;2.90;1.70;;;7.30;99.90;;;;;;5015250;28;20209;-45
2023/09/24 04:27:17;;;;;;;2.27;1.60;;;7.30;99.90;;;;;;5013973;28;20214;-48
2023/09/24 04:29:43;;;;;;;9.00;1.67;;;7.30;99.90;;;;;;5015101;28;20225;-46
2023/09/24 04:32:09;;;;;;;5.33;1.60;;;7.20;99.90;;;;;;5013839;28;20697;-47
2023/09/24 04:34:35;;;;;;;3.17;1.47;;;7.20;99.90;;;;;;5015072;28;20181;-46
2023/09/24 04:37:01;;;;;;;2.83;1.67;;;7.10;99.90;;;;;;5015069;28;20197;-45
2023/09/24 04:39:27;;;;;;;3.17;1.67;;;7.10;99.90;;;;;;5014862;28;20568;-47
2023/09/24 04:41:52;;;;;;;4.50;1.40;;;7.10;99.90;;;;;;5015158;28;20239;-46
2023/09/24 04:44:18;;;;;;;4.27;1.70;;;7.10;99.90;;;;;;5015313;28;20185;-46
2023/09/24 04:46:44;;;;;;;3.80;1.43;;;7.00;99.90;;;;;;5015203;28;20182;-47
2023/09/24 04:49:10;;;;;;;2.30;1.37;;;7.00;99.90;;;;;;5014886;28;20201;-46
2023/09/24 04:51:36;;;;;;;3.77;1.60;;;7.00;99.90;;;;;;5015095;28;20530;-46
2023/09/24 04:54:03;;;;;;;1.50;1.40;;;7.00;99.90;;;;;;5014652;28;20199;-46
2023/09/24 04:56:29;;;;;;;3.37;1.50;;;7.00;99.90;;;;;;5015187;28;20185;-47
2023/09/24 04:58:55;;;;;;;2.57;1.37;;;6.90;99.90;;;;;;5013312;28;20174;-46
2023/09/24 05:01:21;;;;;;;3.63;1.63;;;6.90;99.90;;;;;;5014852;28;20173;-46
2023/09/24 05:03:52;;;;;;;3.10;1.40;;;6.90;99.90;;;;;;5013447;28;20188;-47
2023/09/24 05:06:18;;;;;;;2.97;1.30;;;6.90;99.90;;;;;;4982842;28;20177;-47
2023/09/24 05:08:44;;;;;;;2.97;1.67;;;6.90;99.90;;;;;;5013397;28;20185;-47
2023/09/24 05:11:11;;;;;;;3.43;1.87;;;6.90;99.90;;;;;;5013570;28;20184;-47
2023/09/24 05:13:37;;;;;;;2.57;1.77;;;6.90;99.90;;;;;;5013423;28;20201;-49
2023/09/24 05:16:03;;;;;;;5.53;1.90;;;6.80;99.90;;;;;;5014779;28;20216;-47
2023/09/24 05:18:31;;;;;;;8.43;1.77;;;6.80;99.90;;;;;;5014856;28;20251;-46
2023/09/24 05:20:57;;;;;;;5.23;1.73;;;6.80;99.90;;;;;;5014682;28;20243;-48
2023/09/24 05:23:23;;;;;;;3.37;1.60;;;6.80;99.90;;;;;;5014354;28;20180;-46
2023/09/24 05:25:52;;;;;;;8.10;1.40;;;6.80;99.90;;;;;;5014235;28;20693;-46
2023/09/24 05:28:18;;;;;;;3.40;1.80;;;6.80;99.90;;;;;;5014413;28;20195;-47
2023/09/24 05:30:54;;;;;;;3.37;1.30;;;6.80;99.90;;;;;;5013458;28;20696;-47
2023/09/24 05:33:20;;;;;;;4.33;1.57;;;6.80;99.90;;;;;;5014312;28;20593;-48
2023/09/24 05:35:51;;;;;;;4.47;1.57;;;6.80;99.90;;;;;;4996795;28;20192;-48
2023/09/24 05:38:17;;;;;;;4.07;1.47;;;6.80;99.90;;;;;;5013066;28;20665;-47
2023/09/24 05:40:45;;;;;;;1.50;1.10;;;6.80;99.90;;;;;;5014414;28;20791;-47
2023/09/24 05:43:11;;;;;;;4.80;1.30;;;6.80;99.90;;;;;;5013040;28;20188;-45
2023/09/24 05:45:47;;;;;;;5.10;1.67;;;6.80;99.90;;;;;;5012963;28;20732;-47
2023/09/24 05:48:15;;;;;;;3.63;1.70;;;6.80;99.90;;;;;;5014524;28;20506;-45
2023/09/24 05:50:42;;;;;;;5.63;1.70;;;6.80;99.90;;;;;;5013255;28;20205;-47
2023/09/24 05:53:10;;;;;;;5.63;1.50;;;6.80;99.90;;;;;;5013966;28;20673;-47
2023/09/24 05:55:36;;;;;;;4.73;1.73;;;6.90;99.90;;;;;;5013950;28;20180;-47
2023/09/24 05:58:09;;;;;;;7.57;1.60;;;6.90;99.90;;;;;;5014448;28;20224;-46
2023/09/24 06:00:37;;;;;;;4.73;1.67;;;6.90;99.90;;;;;;5012882;28;20228;-48
2023/09/24 06:03:03;;;;;;;3.20;1.30;;;6.90;99.90;;;;;;5013926;28;20204;-47
2023/09/24 06:05:29;;;;;;;5.37;1.80;;;7.00;99.90;;;;;;5013881;28;20188;-46
2023/09/24 06:07:56;;;;;;;3.73;2.00;;;7.00;99.90;;;;;;5014047;28;20184;-46
2023/09/24 06:10:23;;;;;;;2.70;1.53;;;7.00;99.90;;;;;;4996218;28;20235;-47
2023/09/24 06:12:49;;;;;;;6.80;2.07;;;7.10;99.90;;;;;;5012565;28;20328;-46
2023/09/24 06:15:17;;;;;;;4.57;1.77;;;7.10;99.90;;;;;;5014701;28;20200;-47
2023/09/24 06:17:51;;;;;;;2.63;1.90;;;7.20;99.90;;;;;;5014443;28;20664;-46
2023/09/24 06:20:20;;;;;;;9.53;2.37;;;7.30;99.90;;;;;;5014012;28;20198;-47
2023/09/24 06:22:53;;;;;;;5.10;2.23;;;7.30;99.90;;;;;;5015879;28;20191;-47
2023/09/24 06:25:22;;;;;;;4.87;1.73;;;7.40;99.90;;;;;;5017298;28;20275;-47
2023/09/24 06:27:50;;;;;;;5.30;1.83;;;7.50;99.90;;;;;;5014914;28;20181;-47
2023/09/24 06:30:16;;;;;;;5.60;2.50;;;7.60;99.90;;;;;;5013738;28;20200;-47
2023/09/24 06:32:49;;;;;;;4.07;2.20;;;7.70;99.90;;;;;;5013553;28;20208;-47
2023/09/24 06:35:18;;;;;;;5.27;2.00;;;7.80;99.90;;;;;;5013614;28;20181;-48
2023/09/24 06:37:47;;;;;;;4.33;2.40;;;7.90;99.90;;;;;;5014044;28;20248;-47
2023/09/24 06:40:18;;;;;;;11.23;2.57;;;8.00;99.90;;;;;;5013808;28;20564;-48
2023/09/24 06:42:47;;;;;;;4.17;2.50;;;8.10;99.90;;;;;;5015552;28;20169;-46
2023/09/24 06:45:14;;;;;;;9.37;3.00;;;8.20;99.90;;;;;;5016215;28;20212;-46
2023/09/24 06:47:52;;;;;;;6.57;2.70;;;8.30;99.90;;;;;;5017860;28;20192;-46
2023/09/24 06:50:23;;;;;;;5.20;3.10;;;8.50;99.90;;;;;;5017528;28;20212;-48
2023/09/24 06:52:56;;;;;;;4.70;2.90;;;8.60;99.90;;;;;;5015850;28;20233;-46
2023/09/24 06:55:26;;;;;;;9.03;2.80;;;8.80;99.90;;;;;;5017055;28;20188;-47
2023/09/24 06:57:52;;;;;;;8.13;2.77;;;8.90;99.90;;;;;;5035150;23;20261;-47
2023/09/24 07:00:18;;;;;;;6.13;2.87;;;9.00;99.90;;;;;;5016678;28;20189;-47
2023/09/24 07:02:44;;;;;;;8.90;3.20;;;9.20;99.90;;;;;;5017060;28;20201;-46
2023/09/24 07:05:09;;;;;;;8.57;2.90;;;9.40;99.90;;;;;;5016746;28;20189;-47
2023/09/24 07:07:36;;;;;;;11.33;3.20;;;9.50;99.90;;;;;;5017152;28;20174;-47
2023/09/24 07:10:02;;;;;;;8.97;3.50;;;9.60;99.90;;;;;;5015851;28;20706;-47
2023/09/24 07:12:28;;;;;;;10.10;3.30;;;9.80;99.90;;;;;;5016800;28;20691;-47
2023/09/24 07:14:54;;;;;;;5.97;3.13;;;9.90;99.90;;;;;;5016063;28;20187;-47
2023/09/24 07:17:20;;;;;;;9.37;4.30;;;10.10;99.90;;;;;;5017796;28;20178;-47
2023/09/24 07:19:47;;;;;;;8.27;2.97;;;10.20;99.90;;;;;;5022581;28;20204;-45
2023/09/24 07:22:13;;;;;;;11.67;4.07;;;10.30;99.90;;;;;;5019307;28;20181;-45
2023/09/24 07:24:39;;;;;;;11.40;3.60;;;10.50;99.90;;;;;;5016371;28;20174;-46
2023/09/24 07:27:05;;;;;;;8.87;3.83;;;10.60;99.90;;;;;;5016511;28;20204;-45
2023/09/24 07:29:31;;;;;;;8.83;3.53;;;10.70;99.90;;;;;;5014903;28;20680;-47
2023/09/24 07:31:57;;;;;;;6.60;2.17;;;10.80;99.90;;;;;;5014883;28;20530;-44
2023/09/24 07:34:24;;;;;;;3.87;2.20;;;11.00;99.90;;;;;;5016380;28;20181;-44
2023/09/24 07:36:50;;;;;;;5.40;2.57;;;11.10;99.90;;;;;;5015984;28;20539;-46
2023/09/24 07:39:16;;;;;;;7.53;2.57;;;11.20;99.90;;;;;;5015952;28;20194;-46
2023/09/24 07:41:44;;;;;;;7.70;2.70;;;11.30;99.90;;;;;;5015798;28;20681;-46
2023/09/24 07:44:14;;;;;;;7.83;2.53;;;11.50;99.90;;;;;;5015703;28;20190;-45
2023/09/24 07:46:42;;;;;;;8.60;3.03;;;11.60;99.90;;;;;;5016047;28;20174;-46
2023/09/24 07:49:09;;;;;;;6.83;2.70;;;11.80;99.90;;;;;;5015749;28;20191;-44
2023/09/24 07:51:35;;;;;;;4.97;2.70;;;11.80;99.90;;;;;;5015800;28;20238;-46
2023/09/24 07:54:01;;;;;;;5.03;2.60;;;11.90;99.90;;;;;;5013560;28;20202;-48
2023/09/24 07:56:27;;;;;;;6.87;2.60;;;12.10;99.90;;;;;;5015588;28;20179;-46
2023/09/24 07:58:55;;;;;;;5.10;2.60;;;12.20;99.90;;;;;;5014111;28;20194;-47
2023/09/24 08:01:22;;;;;;;6.40;3.10;;;12.30;99.90;;;;;;5015486;28;20174;-48
2023/09/24 08:03:49;;;;;;;6.10;2.70;;;12.40;99.90;;;;;;5015395;28;20191;-45
2023/09/24 08:06:16;;;;;;;5.40;2.40;;;12.60;99.90;;;;;;5015439;28;20598;-46
2023/09/24 08:08:42;;;;;;;6.73;2.77;;;12.60;99.90;;;;;;5015232;28;20191;-47
2023/09/24 08:11:08;;;;;;;6.23;2.57;;;12.70;99.90;;;;;;5014438;28;20184;-47
2023/09/24 08:13:34;;;;;;;8.20;2.60;;;12.90;99.90;;;;;;5015235;28;20696;-47
2023/09/24 08:16:00;;;;;;;5.53;2.50;;;13.00;99.90;;;;;;5013954;28;20219;-47
2023/09/24 08:18:26;;;;;;;6.27;2.50;;;13.10;99.90;;;;;;5015534;28;20181;-47
2023/09/24 08:20:56;;;;;;;4.43;2.83;;;13.20;99.90;;;;;;5013867;28;20636;-46
2023/09/24 08:23:23;;;;;;;4.63;2.33;;;13.40;99.90;;;;;;5015187;28;20178;-47
2023/09/24 08:25:51;;;;;;;5.27;2.63;;;13.50;99.90;;;;;;5015370;28;20220;-48
2023/09/24 08:28:17;;;;;;;4.67;2.37;;;13.60;99.90;;;;;;5013901;28;20180;-48
2023/09/24 08:30:43;;;;;;;4.93;2.40;;;13.70;99.90;;;;;;5015837;28;20738;-47
2023/09/24 08:33:09;;;;;;;4.57;2.33;;;13.90;99.90;;;;;;5015129;28;20288;-47
2023/09/24 08:35:36;;;;;;;7.67;2.30;;;14.00;99.90;;;;;;5014523;28;20269;-47
2023/09/24 08:38:02;;;;;;;4.57;2.23;;;14.10;99.90;;;;;;5015392;28;20696;-45
2023/09/24 08:40:32;;;;;;;6.17;1.90;;;14.10;99.90;;;;;;5014957;28;20217;-46
2023/09/24 08:42:58;;;;;;;6.27;2.40;;;14.20;99.90;;;;;;5016520;28;20280;-47
2023/09/24 08:45:26;;;;;;;4.20;1.60;;;14.40;99.90;;;;;;5015368;28;20186;-47
2023/09/24 08:47:52;;;;;;;5.33;1.50;;;14.50;99.90;;;;;;5015158;28;20176;-46
2023/09/24 08:50:19;;;;;;;4.33;1.40;;;14.60;99.90;;;;;;5014692;28;20201;-46
2023/09/24 08:52:45;;;;;;;4.20;1.60;;;14.70;99.90;;;;;;5014992;28;20197;-46
2023/09/24 08:55:13;;;;;;;3.33;1.47;;;14.90;99.90;;;;;;5016158;28;20296;-46
2023/09/24 08:57:43;;;;;;;5.27;1.57;;;15.00;99.90;;;;;;5014978;28;20196;-48
2023/09/24 09:00:11;;;;;;;3.80;1.37;;;15.10;99.90;;;;;;5015332;28;20283;-45
2023/09/24 09:02:41;;;;;;;4.23;1.40;;;15.30;99.90;;;;;;5016054;28;20189;-46
2023/09/24 09:05:22;;;;;;;6.87;1.20;;;15.40;99.90;;;;;;5014252;28;20661;-46
2023/09/24 09:08:07;;;;;;;2.73;1.47;;;15.50;99.90;;;;;;5015456;28;20162;-47
2023/09/24 09:10:34;;;;;;;5.47;1.30;;;15.60;99.90;;;;;;5014702;28;20628;-47
2023/09/24 09:13:13;;;;;;;4.10;1.23;;;15.70;99.90;;;;;;5013163;28;20190;-47
2023/09/24 09:15:41;;;;;;;6.27;1.40;;;15.90;99.90;;;;;;5013088;28;20648;-44
2023/09/24 09:18:26;;;;;;;5.03;1.50;;;16.00;99.90;;;;;;5014224;28;20180;-46
2023/09/24 09:20:59;;;;;;;4.87;1.40;;;16.10;99.90;;;;;;5014245;28;20703;-46
2023/09/24 09:23:33;;;;;;;4.00;1.23;;;16.20;99.90;;;;;;5013455;28;20178;-47
2023/09/24 09:25:59;;;;;;;4.43;1.20;;;16.30;99.90;;;;;;5014267;28;20201;-41
2023/09/24 09:28:27;;;;;;;4.90;1.37;;;16.40;99.90;;;;;;5014264;28;20208;-42
2023/09/24 09:31:01;;;;;;;4.00;1.30;;;16.50;99.90;;;;;;5014025;28;20201;-39
2023/09/24 09:33:34;;;;;;;3.10;1.50;;;16.60;99.90;;;;;;5014154;28;20696;-42
2023/09/24 09:36:00;;;;;;;1.40;1.00;;;16.70;99.90;;;;;;5014815;28;20182;-43
2023/09/24 09:38:27;;;;;;;3.60;1.17;;;16.80;99.90;;;;;;5014238;28;20170;-40
2023/09/24 09:40:55;;;;;;;1.70;1.00;;;16.80;99.90;;;;;;5014126;28;20197;-40
2023/09/24 09:43:25;;;;;;;4.00;0.90;;;16.90;97.00;;;;;;5014136;28;20193;-40
2023/09/24 09:45:54;;;;;;;2.53;1.10;;;17.00;98.30;;;;;;5012961;28;20185;-43
2023/09/24 09:48:28;;;;;;;3.23;1.13;;;17.00;97.60;;;;;;5014041;28;20178;-41
2023/09/24 09:51:02;;;;;;;4.17;1.37;;;17.20;96.80;;;;;;5013686;28;20246;-43
2023/09/24 09:53:31;;;;;;;4.17;1.03;;;17.20;96.80;;;;;;5012445;28;20193;-40
2023/09/24 09:55:59;;;;;;;2.80;0.90;;;17.30;98.40;;;;;;5013827;28;20178;-43
2023/09/24 09:58:26;;;;;;;2.47;1.00;;;17.40;96.30;;;;;;5013661;28;20209;-44
2023/09/24 10:00:53;;;;;;;3.03;0.90;;;17.50;96.50;;;;;;5013942;28;20237;-41
2023/09/24 10:03:19;;;;;;;2.47;1.00;;;17.60;96.20;;;;;;5013719;28;20169;-43
2023/09/24 10:05:48;;;;;;;8.77;1.20;;;17.70;95.50;;;;;;5013993;28;20521;-40
2023/09/24 10:08:37;;;;;;;4.83;1.17;;;17.80;94.30;;;;;;5013854;28;20224;-41
2023/09/24 10:11:04;;;;;;;1.63;1.07;;;18.00;92.70;;;;;;5012293;28;20211;-40
2023/09/24 10:13:46;;;;;;;3.63;1.20;;;18.10;90.20;;;;;;5013576;28;20204;-44
2023/09/24 10:16:35;;;;;;;5.27;1.20;;;18.20;74.00;;;;;;5014279;28;20184;-47
2023/09/24 10:19:05;;;;;;;1.03;0.80;;;18.30;78.70;;;;;;5017816;28;20162;-48
2023/09/24 10:21:36;;;;;;;3.67;1.40;;;18.40;65.70;;;;;;5017781;28;20177;-48
2023/09/24 10:24:14;;;;;;;1.97;0.80;;;18.50;61.50;;;;;;5016265;28;20184;-48
2023/09/24 10:27:04;;;;;;;2.50;1.03;;;18.70;48.00;;;;;;5017438;28;20248;-47
2023/09/24 10:29:52;;;;;;;3.50;1.30;;;18.70;48.70;;;;;;5016004;28;20208;-47
2023/09/24 10:32:20;;;;;;;3.33;1.40;;;18.90;45.20;;;;;;5017663;28;20173;-47
2023/09/24 10:34:54;;;;;;;3.10;0.80;;;19.00;47.70;;;;;;5017586;28;20531;-48
2023/09/24 10:37:39;;;;;;;2.40;0.90;;;19.10;45.40;;;;;;5017074;28;20185;-48
2023/09/24 10:40:09;;;;;;;3.53;1.10;;;19.20;48.20;;;;;;5015848;28;20201;-48
2023/09/24 10:42:43;;;;;;;2.73;1.30;;;19.30;54.80;;;;;;5017591;28;20186;-47
2023/09/24 10:45:12;;;;;;;2.43;1.20;;;19.40;40.50;;;;;;5015930;28;20188;-46
2023/09/24 10:47:41;;;;;;;1.77;0.90;;;19.50;32.90;;;;;;5017273;28;20299;-47
2023/09/24 10:50:16;;;;;;;1.93;0.97;;;19.60;25.20;;;;;;5017066;28;20296;-47
2023/09/24 10:53:02;;;;;;;3.03;1.03;;;19.60;42.10;;;;;;5018123;28;20193;-47
2023/09/24 10:55:30;;;;;;;2.50;1.03;;;19.70;37.10;;;;;;5017708;28;20169;-47
2023/09/24 10:57:59;;;;;;;4.73;1.03;;;19.80;47.50;;;;;;5019171;28;20198;-48
2023/09/24 11:00:26;;;;;;;3.80;1.33;;;20.00;59.30;;;;;;5017575;28;20225;-46
2023/09/24 11:02:59;;;;;;;1.27;0.70;;;20.00;72.20;;;;;;5016743;28;20182;-47
2023/09/24 11:05:26;;;;;;;3.10;1.30;;;20.10;93.70;;;;;;5016686;28;20185;-48
2023/09/24 11:07:53;;;;;;;2.10;0.87;;;20.20;77.80;;;;;;5017361;28;20197;-48
2023/09/24 11:10:23;;;;;;;5.10;0.90;;;20.30;88.60;;;;;;5016722;28;20575;-47
2023/09/24 11:12:53;;;;;;;3.00;1.00;;;20.40;71.70;;;;;;5015192;28;20205;-47
2023/09/24 11:15:20;;;;;;;2.17;0.80;;;20.50;76.50;;;;;;5015349;28;20166;-48
2023/09/24 11:17:47;;;;;;;2.77;1.10;;;20.60;79.00;;;;;;5016764;28;20739;-47
2023/09/24 11:20:20;;;;;;;2.80;1.00;;;20.60;83.40;;;;;;4999311;28;20205;-47
2023/09/24 11:23:01;;;;;;;1.93;0.90;;;20.70;70.00;;;;;;5015204;28;20206;-47
2023/09/24 11:25:28;;;;;;;3.23;1.00;;;20.80;74.80;;;;;;5016690;28;20158;-47
2023/09/24 11:27:59;;;;;;;1.77;0.90;;;20.90;69.60;;;;;;5016480;28;20228;-47
2023/09/24 11:30:38;;;;;;;4.50;1.30;;;21.00;47.90;;;;;;5015521;28;20277;-46
2023/09/24 11:33:20;;;;;;;2.57;1.07;;;21.00;48.50;;;;;;5016251;28;20212;-47
2023/09/24 11:35:46;;;;;;;1.57;1.00;;;21.10;65.00;;;;;;5016426;28;20625;-41
2023/09/24 11:38:14;;;;;;;1.97;1.00;;;21.20;62.30;;;;;;5014859;28;20202;-43
2023/09/24 11:40:43;;;;;;;2.90;1.00;;;21.20;54.10;;;;;;5016807;28;20541;-44
2023/09/24 11:43:12;;;;;;;1.73;0.80;;;21.30;60.70;;;;;;5015929;28;20173;-44
2023/09/24 11:45:46;;;;;;;3.20;0.90;;;21.40;40.80;;;;;;5015961;28;20245;-42
2023/09/24 11:48:18;;;;;;;1.63;0.90;;;21.50;34.50;;;;;;5016018;28;20154;-43
2023/09/24 11:50:55;;;;;;;2.73;0.57;;;21.60;36.40;;;;;;5015803;28;20205;-42
2023/09/24 11:53:22;;;;;;;2.30;0.70;;;21.60;57.90;;;;;;5016043;28;20197;-41
2023/09/24 11:55:49;;;;;;;5.07;1.00;;;21.70;76.30;;;;;;5015997;28;20184;-40
2023/09/24 11:58:17;;;;;;;3.47;0.90;;;21.80;77.70;;;;;;5016241;28;20232;-40
2023/09/24 12:00:44;;;;;;;1.13;0.70;;;21.70;51.70;;;;;;5014282;28;20198;-39
2023/09/24 12:03:11;;;;;;;2.13;0.90;;;21.90;80.20;;;;;;5016000;28;20178;-49
2023/09/24 12:05:36;;;;;;;3.73;0.80;;;21.90;79.80;;;;;;5015893;28;20193;-46
2023/09/24 12:08:04;;;;;;;1.90;0.87;;;21.90;50.70;;;;;;5015515;28;20517;-45
2023/09/24 12:10:31;;;;;;;3.33;0.97;;;22.00;47.80;;;;;;5015417;28;20197;-48
2023/09/24 12:13:04;;;;;;;4.23;0.83;;;22.00;43.20;;;;;;5015452;28;20630;-47
2023/09/24 12:15:31;;;;;;;5.13;1.03;;;22.10;23.70;;;;;;5015628;28;20172;-47
2023/09/24 12:17:58;;;;;;;3.63;1.03;;;22.10;39.90;;;;;;5015548;28;20189;-47
2023/09/24 12:20:27;;;;;;;2.53;0.83;;;22.20;40.30;;;;;;5015526;28;20259;-46
2023/09/24 12:22:54;;;;;;;2.70;0.90;;;22.20;64.00;;;;;;5015463;28;20182;-47
2023/09/24 12:25:20;;;;;;;1.03;0.60;;;22.30;15.80;;;;;;5015180;28;20182;-48
2023/09/24 12:27:46;;;;;;;4.50;1.13;;;22.30;20.00;;;;;;5015051;28;20197;-48
2023/09/24 12:30:12;;;;;;;1.50;0.70;;;22.40;1.00;;;;;;5015302;28;20201;-47
2023/09/24 12:32:39;;;;;;;2.77;1.00;;;22.40;13.60;;;;;;5015162;28;20205;-44
2023/09/24 12:35:10;;;;;;;2.40;1.00;;;22.50;4.30;;;;;;5015660;28;20667;-46
2023/09/24 12:37:37;;;;;;;1.73;0.90;;;22.70;1.00;;;;;;5015278;28;20170;-46
2023/09/24 12:40:08;;;;;;;1.43;0.70;;;22.70;2.90;;;;;;5014663;28;20681;-47
2023/09/24 12:42:35;;;;;;;1.13;0.77;;;22.80;1.00;;;;;;5015325;28;20224;-44
2023/09/24 12:45:03;;;;;;;1.73;0.90;;;22.90;1.00;;;;;;5014843;28;20586;-48
2023/09/24 12:47:31;;;;;;;5.17;1.23;;;23.00;1.00;;;;;;5014695;28;20192;-46
2023/09/24 12:50:00;;;;;;;1.50;0.77;;;23.10;1.00;;;;;;5014944;28;20213;-46
2023/09/24 12:52:44;;;;;;;2.10;0.97;;;23.10;1.00;;;;;;5014830;28;20185;-46
2023/09/24 12:55:11;;;;;;;1.20;0.63;;;23.20;1.00;;;;;;5014582;28;20540;-48
2023/09/24 12:57:39;;;;;;;1.37;0.93;;;23.20;4.20;;;;;;5014507;28;20201;-46
2023/09/24 13:00:12;;;;;;;1.90;0.80;;;23.30;6.80;;;;;;5014845;28;20205;-47